Enter the Airport ICAO Code

Search by Airport or City

Current Weather

ENGM | Oslo Airport, Gardermoen

Oslo, Norway

Last Update 9 Minutes Ago

Completely Cloudy Sky

Temperature of 16 ºC

Light to Moderate Winds from NorthEast

Temperature

16 ºC

Dew Point Temperature

14 ºC

Relative Humidity

87.99 %

Wind Direction

NorthEast (050º, Ranging from 020º to 090º)

Wind Velocity

11 km/h (06 kt)

Gusts

None

Visibility

Greater than 10 Kilometers

Sea Level Pressure

1010 hPa (Hectopascals)

Layers of Clouds

5% to 30% of Sky Covered from 305 mts (1000 ft) Above Ground Level.

30% to 60% of Sky Covered from 366 mts (1200 ft) Above Ground Level.

90% to 100% of Sky Covered from 427 mts (1400 ft) Above Ground Level.

METAR ENGM 191320Z 05006KT 020V090 9999 FEW010 SCT012 OVC014 16/14 Q1010 TEMPO BKN018

Weather Forecast

ENGM | Oslo Airport, Gardermoen

Oslo, Norway

Forecast valid for the next -469 Hours

In 347 hours it is expected the begining of:

Mostly Cloudy Sky

From now on it is expected 7 hours with intermittent periods of:

Thunderstorm with Rain

Maximum Temperature

No Data

Minimum Temperature

No Data

TAF ENGM 1912/2012 04005KT 9999 SCT008 BKN015 PROB40 TEMPO 1912/1920 4000 TSRA BKN004 SCT030CB PROB40 1921/2009 4000 BR BKN003